sensor_id;sensor_type;location;lat;lon;timestamp;temperature;humidity
8778;DHT22;4425;50.872;4.712;2023-11-21T00:00:11;9.90;99.90
8778;DHT22;4425;50.872;4.712;2023-11-21T00:02:38;9.80;99.90
8778;DHT22;4425;50.872;4.712;2023-11-21T00:05:07;9.80;99.90
8778;DHT22;4425;50.872;4.712;2023-11-21T00:07:35;9.80;99.90
8778;DHT22;4425;50.872;4.712;2023-11-21T00:10:04;9.90;99.90
8778;DHT22;4425;50.872;4.712;2023-11-21T00:12:33;9.90;99.90
8778;DHT22;4425;50.872;4.712;2023-11-21T00:15:00;9.90;99.90
8778;DHT22;4425;50.872;4.712;2023-11-21T00:17:27;9.90;99.90
8778;DHT22;4425;50.872;4.712;2023-11-21T00:19:54;10.00;99.90
8778;DHT22;4425;50.872;4.712;2023-11-21T00:22:21;10.00;99.90
8778;DHT22;4425;50.872;4.712;2023-11-21T00:24:48;10.00;99.90
8778;DHT22;4425;50.872;4.712;2023-11-21T00:27:16;10.00;99.90
8778;DHT22;4425;50.872;4.712;2023-11-21T00:29:43;10.00;99.90
8778;DHT22;4425;50.872;4.712;2023-11-21T00:32:10;10.00;99.90
8778;DHT22;4425;50.872;4.712;2023-11-21T00:34:37;10.10;99.90
8778;DHT22;4425;50.872;4.712;2023-11-21T00:37:04;10.10;99.90
8778;DHT22;4425;50.872;4.712;2023-11-21T00:39:31;10.00;99.90
8778;DHT22;4425;50.872;4.712;2023-11-21T00:41:58;10.00;99.90
8778;DHT22;4425;50.872;4.712;2023-11-21T00:44:26;10.00;99.90
8778;DHT22;4425;50.872;4.712;2023-11-21T00:46:53;9.80;99.90
8778;DHT22;4425;50.872;4.712;2023-11-21T00:49:20;9.80;99.90
8778;DHT22;4425;50.872;4.712;2023-11-21T00:51:47;9.80;99.90
8778;DHT22;4425;50.872;4.712;2023-11-21T00:54:14;9.70;99.90
8778;DHT22;4425;50.872;4.712;2023-11-21T00:56:48;9.80;99.90
8778;DHT22;4425;50.872;4.712;2023-11-21T00:59:15;9.70;99.90
8778;DHT22;4425;50.872;4.712;2023-11-21T01:01:44;9.70;99.90
8778;DHT22;4425;50.872;4.712;2023-11-21T01:04:11;9.70;99.90
8778;DHT22;4425;50.872;4.712;2023-11-21T01:06:37;9.70;99.90
8778;DHT22;4425;50.872;4.712;2023-11-21T01:09:04;9.60;99.90
8778;DHT22;4425;50.872;4.712;2023-11-21T01:11:34;9.60;99.90
8778;DHT22;4425;50.872;4.712;2023-11-21T01:14:04;9.60;99.90
8778;DHT22;4425;50.872;4.712;2023-11-21T01:16:32;9.50;99.90
8778;DHT22;4425;50.872;4.712;2023-11-21T01:19:03;9.40;99.90
8778;DHT22;4425;50.872;4.712;2023-11-21T01:21:30;9.40;99.90
8778;DHT22;4425;50.872;4.712;2023-11-21T01:23:57;9.30;99.90
8778;DHT22;4425;50.872;4.712;2023-11-21T01:26:24;9.20;99.90
8778;DHT22;4425;50.872;4.712;2023-11-21T01:28:51;9.30;99.90
8778;DHT22;4425;50.872;4.712;2023-11-21T01:31:18;9.30;99.90
8778;DHT22;4425;50.872;4.712;2023-11-21T01:33:46;9.30;99.90
8778;DHT22;4425;50.872;4.712;2023-11-21T01:36:15;9.30;99.90
8778;DHT22;4425;50.872;4.712;2023-11-21T01:38:42;9.40;99.90
8778;DHT22;4425;50.872;4.712;2023-11-21T01:41:09;9.40;99.90
8778;DHT22;4425;50.872;4.712;2023-11-21T01:43:36;9.40;99.90
8778;DHT22;4425;50.872;4.712;2023-11-21T01:46:04;9.40;99.90
8778;DHT22;4425;50.872;4.712;2023-11-21T01:48:32;9.50;99.90
8778;DHT22;4425;50.872;4.712;2023-11-21T01:50:59;9.40;99.90
8778;DHT22;4425;50.872;4.712;2023-11-21T01:53:28;9.50;99.90
8778;DHT22;4425;50.872;4.712;2023-11-21T01:55:56;9.60;99.90
8778;DHT22;4425;50.872;4.712;2023-11-21T01:58:23;9.60;99.90
8778;DHT22;4425;50.872;4.712;2023-11-21T02:00:50;9.50;99.90
8778;DHT22;4425;50.872;4.712;2023-11-21T02:03:18;9.50;99.90
8778;DHT22;4425;50.872;4.712;2023-11-21T02:05:46;9.50;99.90
8778;DHT22;4425;50.872;4.712;2023-11-21T02:08:13;9.60;99.90
8778;DHT22;4425;50.872;4.712;2023-11-21T02:10:41;9.60;99.90
8778;DHT22;4425;50.872;4.712;2023-11-21T02:13:08;9.70;99.90
8778;DHT22;4425;50.872;4.712;2023-11-21T02:15:36;9.60;99.90
8778;DHT22;4425;50.872;4.712;2023-11-21T02:18:04;9.60;99.90
8778;DHT22;4425;50.872;4.712;2023-11-21T02:20:32;9.50;99.90
8778;DHT22;4425;50.872;4.712;2023-11-21T02:23:01;9.50;99.90
8778;DHT22;4425;50.872;4.712;2023-11-21T02:25:30;9.40;99.90
8778;DHT22;4425;50.872;4.712;2023-11-21T02:27:58;9.40;99.90
8778;DHT22;4425;50.872;4.712;2023-11-21T02:30:25;9.50;99.90
8778;DHT22;4425;50.872;4.712;2023-11-21T02:32:53;9.40;99.90
8778;DHT22;4425;50.872;4.712;2023-11-21T02:35:20;9.50;99.90
8778;DHT22;4425;50.872;4.712;2023-11-21T02:37:47;9.50;99.90
8778;DHT22;4425;50.872;4.712;2023-11-21T02:40:16;9.50;99.90
8778;DHT22;4425;50.872;4.712;2023-11-21T02:42:43;9.70;99.90
8778;DHT22;4425;50.872;4.712;2023-11-21T02:45:10;9.60;99.90
8778;DHT22;4425;50.872;4.712;2023-11-21T02:47:38;9.50;99.90
8778;DHT22;4425;50.872;4.712;2023-11-21T02:50:06;9.50;99.90
8778;DHT22;4425;50.872;4.712;2023-11-21T02:52:34;9.60;99.90
8778;DHT22;4425;50.872;4.712;2023-11-21T02:55:01;9.50;99.90
8778;DHT22;4425;50.872;4.712;2023-11-21T02:57:29;9.60;99.90
8778;DHT22;4425;50.872;4.712;2023-11-21T02:59:56;9.50;99.90
8778;DHT22;4425;50.872;4.712;2023-11-21T03:02:23;9.50;99.90
8778;DHT22;4425;50.872;4.712;2023-11-21T03:04:50;9.50;99.90
8778;DHT22;4425;50.872;4.712;2023-11-21T03:07:17;9.50;99.90
8778;DHT22;4425;50.872;4.712;2023-11-21T03:09:44;9.30;99.90
8778;DHT22;4425;50.872;4.712;2023-11-21T03:12:11;9.30;99.90
8778;DHT22;4425;50.872;4.712;2023-11-21T03:14:40;9.30;99.90
8778;DHT22;4425;50.872;4.712;2023-11-21T03:17:07;9.00;99.90
8778;DHT22;4425;50.872;4.712;2023-11-21T03:19:33;9.10;99.90
8778;DHT22;4425;50.872;4.712;2023-11-21T03:22:00;9.10;99.90
8778;DHT22;4425;50.872;4.712;2023-11-21T03:24:27;9.10;99.90
8778;DHT22;4425;50.872;4.712;2023-11-21T03:26:54;9.10;99.90
8778;DHT22;4425;50.872;4.712;2023-11-21T03:29:21;9.10;99.90
8778;DHT22;4425;50.872;4.712;2023-11-21T03:31:49;9.20;99.90
8778;DHT22;4425;50.872;4.712;2023-11-21T03:34:24;9.20;99.90
8778;DHT22;4425;50.872;4.712;2023-11-21T03:36:52;9.20;99.90
8778;DHT22;4425;50.872;4.712;2023-11-21T03:39:19;9.10;99.90
8778;DHT22;4425;50.872;4.712;2023-11-21T03:41:46;9.10;99.90
8778;DHT22;4425;50.872;4.712;2023-11-21T03:44:13;9.20;99.90
8778;DHT22;4425;50.872;4.712;2023-11-21T03:46:40;9.30;99.90
8778;DHT22;4425;50.872;4.712;2023-11-21T03:49:09;9.20;99.90
8778;DHT22;4425;50.872;4.712;2023-11-21T03:51:36;9.20;99.90
8778;DHT22;4425;50.872;4.712;2023-11-21T03:54:03;9.20;99.90
8778;DHT22;4425;50.872;4.712;2023-11-21T03:56:30;9.20;99.90
8778;DHT22;4425;50.872;4.712;2023-11-21T03:58:57;9.20;99.90
8778;DHT22;4425;50.872;4.712;2023-11-21T04:01:24;9.10;99.90
8778;DHT22;4425;50.872;4.712;2023-11-21T04:03:51;9.20;99.90
8778;DHT22;4425;50.872;4.712;2023-11-21T04:06:20;9.30;99.90
8778;DHT22;4425;50.872;4.712;2023-11-21T04:08:47;9.30;99.90
8778;DHT22;4425;50.872;4.712;2023-11-21T04:11:13;9.40;99.90
8778;DHT22;4425;50.872;4.712;2023-11-21T04:13:41;9.40;99.90
8778;DHT22;4425;50.872;4.712;2023-11-21T04:16:09;9.30;99.90
8778;DHT22;4425;50.872;4.712;2023-11-21T04:18:36;9.30;99.90
8778;DHT22;4425;50.872;4.712;2023-11-21T04:21:04;9.30;99.90
8778;DHT22;4425;50.872;4.712;2023-11-21T04:23:32;9.30;99.90
8778;DHT22;4425;50.872;4.712;2023-11-21T04:26:00;9.30;99.90
8778;DHT22;4425;50.872;4.712;2023-11-21T04:28:27;9.30;99.90
8778;DHT22;4425;50.872;4.712;2023-11-21T04:30:54;9.20;99.90
8778;DHT22;4425;50.872;4.712;2023-11-21T04:33:21;9.30;99.90
8778;DHT22;4425;50.872;4.712;2023-11-21T04:35:48;9.30;99.90
8778;DHT22;4425;50.872;4.712;2023-11-21T04:38:15;9.30;99.90
8778;DHT22;4425;50.872;4.712;2023-11-21T04:40:43;9.30;99.90
8778;DHT22;4425;50.872;4.712;2023-11-21T04:43:10;9.50;99.90
8778;DHT22;4425;50.872;4.712;2023-11-21T04:45:37;9.60;99.90
8778;DHT22;4425;50.872;4.712;2023-11-21T04:48:04;9.60;99.90
8778;DHT22;4425;50.872;4.712;2023-11-21T04:50:32;9.70;99.90
8778;DHT22;4425;50.872;4.712;2023-11-21T04:52:59;9.70;99.90
8778;DHT22;4425;50.872;4.712;2023-11-21T04:55:25;9.70;99.90
8778;DHT22;4425;50.872;4.712;2023-11-21T04:57:55;9.70;99.90
8778;DHT22;4425;50.872;4.712;2023-11-21T05:00:22;9.80;99.90
8778;DHT22;4425;50.872;4.712;2023-11-21T05:02:49;9.80;99.90
8778;DHT22;4425;50.872;4.712;2023-11-21T05:05:16;9.80;99.90
8778;DHT22;4425;50.872;4.712;2023-11-21T05:07:43;9.80;99.90
8778;DHT22;4425;50.872;4.712;2023-11-21T05:10:10;9.80;99.90
8778;DHT22;4425;50.872;4.712;2023-11-21T05:12:40;9.80;99.90
8778;DHT22;4425;50.872;4.712;2023-11-21T05:15:10;9.80;99.90
8778;DHT22;4425;50.872;4.712;2023-11-21T05:17:41;9.70;99.90
8778;DHT22;4425;50.872;4.712;2023-11-21T05:20:09;9.70;99.90
8778;DHT22;4425;50.872;4.712;2023-11-21T05:22:37;9.60;99.90
8778;DHT22;4425;50.872;4.712;2023-11-21T05:25:04;9.60;99.90
8778;DHT22;4425;50.872;4.712;2023-11-21T05:27:33;9.60;99.90
8778;DHT22;4425;50.872;4.712;2023-11-21T05:30:00;9.70;99.90
8778;DHT22;4425;50.872;4.712;2023-11-21T05:32:29;9.60;99.90
8778;DHT22;4425;50.872;4.712;2023-11-21T05:34:55;9.40;99.90
8778;DHT22;4425;50.872;4.712;2023-11-21T05:37:22;9.50;99.90
8778;DHT22;4425;50.872;4.712;2023-11-21T05:39:49;9.50;99.90
8778;DHT22;4425;50.872;4.712;2023-11-21T05:42:16;9.50;99.90
8778;DHT22;4425;50.872;4.712;2023-11-21T05:44:43;9.50;99.90
8778;DHT22;4425;50.872;4.712;2023-11-21T05:47:11;9.50;99.90
8778;DHT22;4425;50.872;4.712;2023-11-21T05:49:40;9.70;99.90
8778;DHT22;4425;50.872;4.712;2023-11-21T05:52:07;9.70;99.90
8778;DHT22;4425;50.872;4.712;2023-11-21T05:54:35;9.80;99.90
8778;DHT22;4425;50.872;4.712;2023-11-21T05:57:03;9.90;99.90
8778;DHT22;4425;50.872;4.712;2023-11-21T05:59:30;9.90;99.90
8778;DHT22;4425;50.872;4.712;2023-11-21T06:01:56;10.00;99.90
8778;DHT22;4425;50.872;4.712;2023-11-21T06:04:24;10.00;99.90
8778;DHT22;4425;50.872;4.712;2023-11-21T06:06:52;10.00;99.90
8778;DHT22;4425;50.872;4.712;2023-11-21T06:09:19;10.00;99.90
8778;DHT22;4425;50.872;4.712;2023-11-21T06:11:47;10.00;99.90
8778;DHT22;4425;50.872;4.712;2023-11-21T06:14:14;10.10;99.90
8778;DHT22;4425;50.872;4.712;2023-11-21T06:16:43;10.10;99.90
8778;DHT22;4425;50.872;4.712;2023-11-21T06:19:11;10.00;99.90
8778;DHT22;4425;50.872;4.712;2023-11-21T06:21:37;10.00;99.90
8778;DHT22;4425;50.872;4.712;2023-11-21T06:24:06;10.10;99.90
8778;DHT22;4425;50.872;4.712;2023-11-21T06:26:33;10.00;99.90
8778;DHT22;4425;50.872;4.712;2023-11-21T06:29:00;10.00;99.90
8778;DHT22;4425;50.872;4.712;2023-11-21T06:31:28;10.00;99.90
8778;DHT22;4425;50.872;4.712;2023-11-21T06:33:55;9.90;99.90
8778;DHT22;4425;50.872;4.712;2023-11-21T06:36:24;10.00;99.90
8778;DHT22;4425;50.872;4.712;2023-11-21T06:38:51;9.80;99.90
8778;DHT22;4425;50.872;4.712;2023-11-21T06:41:20;9.90;99.90
8778;DHT22;4425;50.872;4.712;2023-11-21T06:43:47;10.00;99.90
8778;DHT22;4425;50.872;4.712;2023-11-21T06:46:15;10.00;99.90
8778;DHT22;4425;50.872;4.712;2023-11-21T06:48:42;10.00;99.90
8778;DHT22;4425;50.872;4.712;2023-11-21T06:51:09;10.10;99.90
8778;DHT22;4425;50.872;4.712;2023-11-21T06:53:36;10.10;99.90
8778;DHT22;4425;50.872;4.712;2023-11-21T06:56:04;10.10;99.90
8778;DHT22;4425;50.872;4.712;2023-11-21T06:58:34;10.10;99.90
8778;DHT22;4425;50.872;4.712;2023-11-21T07:01:01;10.00;99.90
8778;DHT22;4425;50.872;4.712;2023-11-21T07:03:28;10.00;99.90
8778;DHT22;4425;50.872;4.712;2023-11-21T07:05:54;9.90;99.90
8778;DHT22;4425;50.872;4.712;2023-11-21T07:08:21;9.90;99.90
8778;DHT22;4425;50.872;4.712;2023-11-21T07:10:48;10.10;99.90
8778;DHT22;4425;50.872;4.712;2023-11-21T07:13:15;9.90;99.90
8778;DHT22;4425;50.872;4.712;2023-11-21T07:15:44;9.90;99.90
8778;DHT22;4425;50.872;4.712;2023-11-21T07:18:11;9.90;99.90
8778;DHT22;4425;50.872;4.712;2023-11-21T07:20:38;9.90;99.90
8778;DHT22;4425;50.872;4.712;2023-11-21T07:23:04;9.80;99.90
8778;DHT22;4425;50.872;4.712;2023-11-21T07:25:32;9.90;99.90
8778;DHT22;4425;50.872;4.712;2023-11-21T07:27:59;10.00;99.90
8778;DHT22;4425;50.872;4.712;2023-11-21T07:30:26;10.20;99.90
8778;DHT22;4425;50.872;4.712;2023-11-21T07:32:55;10.10;99.90
8778;DHT22;4425;50.872;4.712;2023-11-21T07:35:21;10.20;99.90
8778;DHT22;4425;50.872;4.712;2023-11-21T07:37:49;10.40;99.90
8778;DHT22;4425;50.872;4.712;2023-11-21T07:40:16;10.50;99.90
8778;DHT22;4425;50.872;4.712;2023-11-21T07:42:43;10.50;99.90
8778;DHT22;4425;50.872;4.712;2023-11-21T07:45:10;10.60;99.90
8778;DHT22;4425;50.872;4.712;2023-11-21T07:47:37;10.50;99.90
8778;DHT22;4425;50.872;4.712;2023-11-21T07:50:08;10.50;99.90
8778;DHT22;4425;50.872;4.712;2023-11-21T07:52:35;10.60;99.90
8778;DHT22;4425;50.872;4.712;2023-11-21T07:55:02;10.60;99.90
8778;DHT22;4425;50.872;4.712;2023-11-21T07:57:29;10.70;99.90
8778;DHT22;4425;50.872;4.712;2023-11-21T07:59:56;10.70;99.90
8778;DHT22;4425;50.872;4.712;2023-11-21T08:02:23;10.70;99.90
8778;DHT22;4425;50.872;4.712;2023-11-21T08:04:51;10.70;99.90
8778;DHT22;4425;50.872;4.712;2023-11-21T08:07:19;10.60;99.90
8778;DHT22;4425;50.872;4.712;2023-11-21T08:09:47;10.70;99.90
8778;DHT22;4425;50.872;4.712;2023-11-21T08:12:17;10.70;99.90
8778;DHT22;4425;50.872;4.712;2023-11-21T08:14:45;10.70;99.90
8778;DHT22;4425;50.872;4.712;2023-11-21T08:17:12;10.80;99.90
8778;DHT22;4425;50.872;4.712;2023-11-21T08:19:39;10.80;99.90
8778;DHT22;4425;50.872;4.712;2023-11-21T08:22:06;10.80;99.90
8778;DHT22;4425;50.872;4.712;2023-11-21T08:24:35;10.90;99.90
8778;DHT22;4425;50.872;4.712;2023-11-21T08:27:04;10.90;99.90
8778;DHT22;4425;50.872;4.712;2023-11-21T08:29:32;10.90;99.90
8778;DHT22;4425;50.872;4.712;2023-11-21T08:32:00;10.90;99.90
8778;DHT22;4425;50.872;4.712;2023-11-21T08:34:26;11.00;99.90
8778;DHT22;4425;50.872;4.712;2023-11-21T08:36:56;10.90;99.90
8778;DHT22;4425;50.872;4.712;2023-11-21T08:39:23;10.90;99.90
8778;DHT22;4425;50.872;4.712;2023-11-21T08:41:53;10.90;99.90
8778;DHT22;4425;50.872;4.712;2023-11-21T08:44:20;10.80;99.90
8778;DHT22;4425;50.872;4.712;2023-11-21T08:46:48;10.70;99.90
8778;DHT22;4425;50.872;4.712;2023-11-21T08:49:15;10.80;99.90
8778;DHT22;4425;50.872;4.712;2023-11-21T08:51:44;10.90;99.90
8778;DHT22;4425;50.872;4.712;2023-11-21T08:54:11;10.90;99.90
8778;DHT22;4425;50.872;4.712;2023-11-21T08:56:38;11.00;99.90
8778;DHT22;4425;50.872;4.712;2023-11-21T08:59:06;11.00;99.90
8778;DHT22;4425;50.872;4.712;2023-11-21T09:01:33;11.00;99.90
8778;DHT22;4425;50.872;4.712;2023-11-21T09:04:00;11.10;99.90
8778;DHT22;4425;50.872;4.712;2023-11-21T09:06:28;11.10;99.90
8778;DHT22;4425;50.872;4.712;2023-11-21T09:08:55;11.20;99.90
8778;DHT22;4425;50.872;4.712;2023-11-21T09:11:21;11.10;99.90
8778;DHT22;4425;50.872;4.712;2023-11-21T09:13:51;11.20;99.90
8778;DHT22;4425;50.872;4.712;2023-11-21T09:16:19;11.20;99.90
8778;DHT22;4425;50.872;4.712;2023-11-21T09:18:46;11.20;99.90
8778;DHT22;4425;50.872;4.712;2023-11-21T09:21:13;11.30;99.90
8778;DHT22;4425;50.872;4.712;2023-11-21T09:23:40;11.40;99.90
8778;DHT22;4425;50.872;4.712;2023-11-21T09:26:07;11.30;99.90
8778;DHT22;4425;50.872;4.712;2023-11-21T09:28:34;11.50;99.90
8778;DHT22;4425;50.872;4.712;2023-11-21T09:31:03;11.40;99.90
8778;DHT22;4425;50.872;4.712;2023-11-21T09:33:32;11.50;99.90
8778;DHT22;4425;50.872;4.712;2023-11-21T09:35:59;11.60;99.90
8778;DHT22;4425;50.872;4.712;2023-11-21T09:38:26;11.50;99.90
8778;DHT22;4425;50.872;4.712;2023-11-21T09:40:54;11.50;99.90
8778;DHT22;4425;50.872;4.712;2023-11-21T09:43:22;11.50;99.90
8778;DHT22;4425;50.872;4.712;2023-11-21T09:45:56;11.40;99.90
8778;DHT22;4425;50.872;4.712;2023-11-21T09:48:24;11.40;99.90
8778;DHT22;4425;50.872;4.712;2023-11-21T09:50:54;11.40;99.90
8778;DHT22;4425;50.872;4.712;2023-11-21T09:53:22;11.40;99.90
8778;DHT22;4425;50.872;4.712;2023-11-21T09:55:52;11.40;99.90
8778;DHT22;4425;50.872;4.712;2023-11-21T09:58:19;11.30;99.90
8778;DHT22;4425;50.872;4.712;2023-11-21T10:00:50;11.40;99.90
8778;DHT22;4425;50.872;4.712;2023-11-21T10:03:19;11.40;99.90
8778;DHT22;4425;50.872;4.712;2023-11-21T10:05:49;11.50;99.90
8778;DHT22;4425;50.872;4.712;2023-11-21T10:08:19;11.40;99.90
8778;DHT22;4425;50.872;4.712;2023-11-21T10:10:51;11.50;99.90
8778;DHT22;4425;50.872;4.712;2023-11-21T10:13:20;11.50;99.90
8778;DHT22;4425;50.872;4.712;2023-11-21T10:15:49;11.60;99.90
8778;DHT22;4425;50.872;4.712;2023-11-21T10:18:17;11.60;99.90
8778;DHT22;4425;50.872;4.712;2023-11-21T10:20:45;11.60;99.90
8778;DHT22;4425;50.872;4.712;2023-11-21T10:23:19;11.50;99.90
8778;DHT22;4425;50.872;4.712;2023-11-21T10:25:45;11.50;99.90
8778;DHT22;4425;50.872;4.712;2023-11-21T10:28:12;11.40;99.90
8778;DHT22;4425;50.872;4.712;2023-11-21T10:30:39;11.50;99.90
8778;DHT22;4425;50.872;4.712;2023-11-21T10:33:07;11.50;99.90
8778;DHT22;4425;50.872;4.712;2023-11-21T10:35:44;11.50;99.90
8778;DHT22;4425;50.872;4.712;2023-11-21T10:38:16;11.40;99.90
8778;DHT22;4425;50.872;4.712;2023-11-21T10:40:44;11.30;99.90
8778;DHT22;4425;50.872;4.712;2023-11-21T10:43:13;11.30;99.90
8778;DHT22;4425;50.872;4.712;2023-11-21T10:45:42;11.30;99.90
8778;DHT22;4425;50.872;4.712;2023-11-21T10:48:10;11.30;99.90
8778;DHT22;4425;50.872;4.712;2023-11-21T10:50:37;11.30;99.90
8778;DHT22;4425;50.872;4.712;2023-11-21T10:53:04;11.30;99.90
8778;DHT22;4425;50.872;4.712;2023-11-21T10:55:32;11.30;99.90
8778;DHT22;4425;50.872;4.712;2023-11-21T10:58:03;11.30;99.90
8778;DHT22;4425;50.872;4.712;2023-11-21T11:00:32;11.40;99.90
8778;DHT22;4425;50.872;4.712;2023-11-21T11:03:00;11.40;99.90
8778;DHT22;4425;50.872;4.712;2023-11-21T11:05:27;11.40;99.90
8778;DHT22;4425;50.872;4.712;2023-11-21T11:07:58;11.50;99.90
8778;DHT22;4425;50.872;4.712;2023-11-21T11:10:27;11.40;99.90
8778;DHT22;4425;50.872;4.712;2023-11-21T11:12:55;11.40;99.90
8778;DHT22;4425;50.872;4.712;2023-11-21T11:15:24;11.40;99.90
8778;DHT22;4425;50.872;4.712;2023-11-21T11:17:52;11.50;99.90
8778;DHT22;4425;50.872;4.712;2023-11-21T11:20:23;11.50;99.90
8778;DHT22;4425;50.872;4.712;2023-11-21T11:23:04;11.60;99.90
8778;DHT22;4425;50.872;4.712;2023-11-21T11:25:43;11.60;99.90
8778;DHT22;4425;50.872;4.712;2023-11-21T11:28:15;11.50;99.90
8778;DHT22;4425;50.872;4.712;2023-11-21T11:30:55;11.40;99.90
8778;DHT22;4425;50.872;4.712;2023-11-21T11:33:31;11.20;99.90
8778;DHT22;4425;50.872;4.712;2023-11-21T11:36:05;11.30;99.90
8778;DHT22;4425;50.872;4.712;2023-11-21T11:38:34;11.30;99.90
8778;DHT22;4425;50.872;4.712;2023-11-21T11:41:03;11.30;99.90
8778;DHT22;4425;50.872;4.712;2023-11-21T11:43:30;11.30;99.90
8778;DHT22;4425;50.872;4.712;2023-11-21T11:46:02;11.30;99.90
8778;DHT22;4425;50.872;4.712;2023-11-21T11:48:30;11.30;99.90
8778;DHT22;4425;50.872;4.712;2023-11-21T11:51:03;11.30;99.90
8778;DHT22;4425;50.872;4.712;2023-11-21T11:53:35;11.30;99.90
8778;DHT22;4425;50.872;4.712;2023-11-21T11:56:28;11.30;99.90
8778;DHT22;4425;50.872;4.712;2023-11-21T11:58:57;11.30;99.90
8778;DHT22;4425;50.872;4.712;2023-11-21T12:01:26;11.30;99.90
8778;DHT22;4425;50.872;4.712;2023-11-21T12:04:23;11.30;99.90
8778;DHT22;4425;50.872;4.712;2023-11-21T12:06:56;11.30;99.90
8778;DHT22;4425;50.872;4.712;2023-11-21T12:09:25;11.30;99.90
8778;DHT22;4425;50.872;4.712;2023-11-21T12:11:54;11.30;99.90
8778;DHT22;4425;50.872;4.712;2023-11-21T12:14:22;11.50;99.90
8778;DHT22;4425;50.872;4.712;2023-11-21T12:16:51;11.60;99.90
8778;DHT22;4425;50.872;4.712;2023-11-21T12:19:19;11.70;99.90
8778;DHT22;4425;50.872;4.712;2023-11-21T12:21:48;11.80;99.90
8778;DHT22;4425;50.872;4.712;2023-11-21T12:24:15;11.90;99.90
8778;DHT22;4425;50.872;4.712;2023-11-21T12:26:43;12.00;99.90
8778;DHT22;4425;50.872;4.712;2023-11-21T12:29:11;12.00;99.90
8778;DHT22;4425;50.872;4.712;2023-11-21T12:31:37;12.00;99.90
8778;DHT22;4425;50.872;4.712;2023-11-21T12:34:06;12.10;99.90
8778;DHT22;4425;50.872;4.712;2023-11-21T12:36:37;12.10;99.90
8778;DHT22;4425;50.872;4.712;2023-11-21T12:39:04;12.10;99.90
8778;DHT22;4425;50.872;4.712;2023-11-21T12:41:34;12.10;99.90
8778;DHT22;4425;50.872;4.712;2023-11-21T12:44:01;12.10;99.90
8778;DHT22;4425;50.872;4.712;2023-11-21T12:46:28;12.00;99.90
8778;DHT22;4425;50.872;4.712;2023-11-21T12:48:57;11.90;99.90
8778;DHT22;4425;50.872;4.712;2023-11-21T12:51:26;11.90;99.90
8778;DHT22;4425;50.872;4.712;2023-11-21T12:53:55;11.80;99.90
8778;DHT22;4425;50.872;4.712;2023-11-21T12:56:24;11.80;99.90
8778;DHT22;4425;50.872;4.712;2023-11-21T12:58:54;11.80;99.90
8778;DHT22;4425;50.872;4.712;2023-11-21T13:01:25;11.70;99.90
8778;DHT22;4425;50.872;4.712;2023-11-21T13:03:57;11.70;99.90
8778;DHT22;4425;50.872;4.712;2023-11-21T13:06:26;11.70;99.90
8778;DHT22;4425;50.872;4.712;2023-11-21T13:08:59;11.70;99.90
8778;DHT22;4425;50.872;4.712;2023-11-21T13:11:26;11.70;99.90
8778;DHT22;4425;50.872;4.712;2023-11-21T13:13:53;11.70;99.90
8778;DHT22;4425;50.872;4.712;2023-11-21T13:16:21;11.60;99.90
8778;DHT22;4425;50.872;4.712;2023-11-21T13:18:49;11.60;99.90
8778;DHT22;4425;50.872;4.712;2023-11-21T13:21:16;11.70;99.90
8778;DHT22;4425;50.872;4.712;2023-11-21T13:23:44;11.80;99.90
8778;DHT22;4425;50.872;4.712;2023-11-21T13:26:15;11.80;99.90
8778;DHT22;4425;50.872;4.712;2023-11-21T13:28:46;11.80;99.90
8778;DHT22;4425;50.872;4.712;2023-11-21T13:31:13;11.90;99.90
8778;DHT22;4425;50.872;4.712;2023-11-21T13:33:51;11.90;99.90
8778;DHT22;4425;50.872;4.712;2023-11-21T13:36:21;11.90;99.90
8778;DHT22;4425;50.872;4.712;2023-11-21T13:38:50;11.80;99.90
8778;DHT22;4425;50.872;4.712;2023-11-21T13:41:18;11.70;99.90
8778;DHT22;4425;50.872;4.712;2023-11-21T13:43:45;11.70;99.90
8778;DHT22;4425;50.872;4.712;2023-11-21T13:46:18;11.70;99.90
8778;DHT22;4425;50.872;4.712;2023-11-21T13:48:47;11.70;99.90
8778;DHT22;4425;50.872;4.712;2023-11-21T13:51:16;11.60;99.90
8778;DHT22;4425;50.872;4.712;2023-11-21T13:53:44;11.60;99.90
8778;DHT22;4425;50.872;4.712;2023-11-21T13:56:15;11.60;99.90
8778;DHT22;4425;50.872;4.712;2023-11-21T13:58:46;11.60;99.90
8778;DHT22;4425;50.872;4.712;2023-11-21T14:01:17;11.60;99.90
8778;DHT22;4425;50.872;4.712;2023-11-21T14:04:07;11.60;99.90
8778;DHT22;4425;50.872;4.712;2023-11-21T14:06:45;11.50;99.90
8778;DHT22;4425;50.872;4.712;2023-11-21T14:09:14;11.60;99.90
8778;DHT22;4425;50.872;4.712;2023-11-21T14:11:50;11.60;99.90
8778;DHT22;4425;50.872;4.712;2023-11-21T14:14:19;11.60;99.90
8778;DHT22;4425;50.872;4.712;2023-11-21T14:16:46;11.50;99.90
8778;DHT22;4425;50.872;4.712;2023-11-21T14:19:13;11.50;99.90
8778;DHT22;4425;50.872;4.712;2023-11-21T14:21:43;11.50;99.90
8778;DHT22;4425;50.872;4.712;2023-11-21T14:24:10;11.50;99.90
8778;DHT22;4425;50.872;4.712;2023-11-21T14:26:40;11.60;99.90
8778;DHT22;4425;50.872;4.712;2023-11-21T14:29:09;11.70;99.90
8778;DHT22;4425;50.872;4.712;2023-11-21T14:31:40;11.70;99.90
8778;DHT22;4425;50.872;4.712;2023-11-21T14:34:07;11.70;99.90
8778;DHT22;4425;50.872;4.712;2023-11-21T14:36:34;11.70;99.90
8778;DHT22;4425;50.872;4.712;2023-11-21T14:39:02;11.70;99.90
8778;DHT22;4425;50.872;4.712;2023-11-21T14:41:32;11.60;99.90
8778;DHT22;4425;50.872;4.712;2023-11-21T14:44:01;11.60;99.90
8778;DHT22;4425;50.872;4.712;2023-11-21T14:46:30;11.60;99.90
8778;DHT22;4425;50.872;4.712;2023-11-21T14:48:57;11.60;99.90
8778;DHT22;4425;50.872;4.712;2023-11-21T14:51:38;11.60;99.90
8778;DHT22;4425;50.872;4.712;2023-11-21T14:54:25;11.50;99.90
8778;DHT22;4425;50.872;4.712;2023-11-21T14:57:05;11.50;99.90
8778;DHT22;4425;50.872;4.712;2023-11-21T14:59:35;11.40;99.90
8778;DHT22;4425;50.872;4.712;2023-11-21T15:02:03;11.50;99.90
8778;DHT22;4425;50.872;4.712;2023-11-21T15:04:41;11.50;99.90
8778;DHT22;4425;50.872;4.712;2023-11-21T15:07:09;11.50;99.90
8778;DHT22;4425;50.872;4.712;2023-11-21T15:09:36;11.40;99.90
8778;DHT22;4425;50.872;4.712;2023-11-21T15:12:07;11.50;99.90
8778;DHT22;4425;50.872;4.712;2023-11-21T15:14:44;11.30;99.90
8778;DHT22;4425;50.872;4.712;2023-11-21T15:17:15;11.30;99.90
8778;DHT22;4425;50.872;4.712;2023-11-21T15:19:48;11.20;99.90
8778;DHT22;4425;50.872;4.712;2023-11-21T15:22:15;11.20;99.90
8778;DHT22;4425;50.872;4.712;2023-11-21T15:24:43;11.20;99.90
8778;DHT22;4425;50.872;4.712;2023-11-21T15:27:12;11.20;99.90
8778;DHT22;4425;50.872;4.712;2023-11-21T15:29:39;11.20;99.90
8778;DHT22;4425;50.872;4.712;2023-11-21T15:32:07;11.10;99.90
8778;DHT22;4425;50.872;4.712;2023-11-21T15:34:37;11.00;99.90
8778;DHT22;4425;50.872;4.712;2023-11-21T15:37:05;11.10;99.90
8778;DHT22;4425;50.872;4.712;2023-11-21T15:39:35;11.10;99.90
8778;DHT22;4425;50.872;4.712;2023-11-21T15:42:02;11.10;99.90
8778;DHT22;4425;50.872;4.712;2023-11-21T15:44:30;11.10;99.90
8778;DHT22;4425;50.872;4.712;2023-11-21T15:46:59;11.20;99.90
8778;DHT22;4425;50.872;4.712;2023-11-21T15:49:26;11.20;99.90
8778;DHT22;4425;50.872;4.712;2023-11-21T15:51:56;11.20;99.90
8778;DHT22;4425;50.872;4.712;2023-11-21T15:54:26;11.20;99.90
8778;DHT22;4425;50.872;4.712;2023-11-21T15:56:55;11.30;99.90
8778;DHT22;4425;50.872;4.712;2023-11-21T15:59:22;11.10;99.90
8778;DHT22;4425;50.872;4.712;2023-11-21T16:01:54;11.10;99.90
8778;DHT22;4425;50.872;4.712;2023-11-21T16:04:22;11.10;99.90
8778;DHT22;4425;50.872;4.712;2023-11-21T16:06:52;11.10;99.90
8778;DHT22;4425;50.872;4.712;2023-11-21T16:09:20;11.10;99.90
8778;DHT22;4425;50.872;4.712;2023-11-21T16:11:49;11.10;99.90
8778;DHT22;4425;50.872;4.712;2023-11-21T16:14:18;11.10;99.90